sensor_id;sensor_type;location;lat;lon;timestamp;temperature;humidity
11848;DHT22;5983;49.966;8.052;2023-02-19T00:01:17;10.70;99.90
11848;DHT22;5983;49.966;8.052;2023-02-19T00:03:49;10.70;99.90
11848;DHT22;5983;49.966;8.052;2023-02-19T00:06:18;10.70;99.90
11848;DHT22;5983;49.966;8.052;2023-02-19T00:08:46;10.60;99.90
11848;DHT22;5983;49.966;8.052;2023-02-19T00:11:18;10.60;99.90
11848;DHT22;5983;49.966;8.052;2023-02-19T00:13:47;10.60;99.90
11848;DHT22;5983;49.966;8.052;2023-02-19T00:16:17;10.60;99.90
11848;DHT22;5983;49.966;8.052;2023-02-19T00:18:46;10.60;99.90
11848;DHT22;5983;49.966;8.052;2023-02-19T00:21:14;10.60;99.90
11848;DHT22;5983;49.966;8.052;2023-02-19T00:23:41;10.60;99.90
11848;DHT22;5983;49.966;8.052;2023-02-19T00:26:10;10.60;99.90
11848;DHT22;5983;49.966;8.052;2023-02-19T00:28:39;10.60;99.90
11848;DHT22;5983;49.966;8.052;2023-02-19T00:31:08;10.60;99.90
11848;DHT22;5983;49.966;8.052;2023-02-19T00:33:38;10.60;99.90
11848;DHT22;5983;49.966;8.052;2023-02-19T00:36:05;10.60;99.90
11848;DHT22;5983;49.966;8.052;2023-02-19T00:38:35;10.60;99.90
11848;DHT22;5983;49.966;8.052;2023-02-19T00:41:04;10.60;99.90
11848;DHT22;5983;49.966;8.052;2023-02-19T00:43:47;10.60;99.90
11848;DHT22;5983;49.966;8.052;2023-02-19T00:46:16;10.70;99.90
11848;DHT22;5983;49.966;8.052;2023-02-19T00:48:44;10.70;99.90
11848;DHT22;5983;49.966;8.052;2023-02-19T00:51:11;10.70;99.90
11848;DHT22;5983;49.966;8.052;2023-02-19T00:53:38;10.70;99.90
11848;DHT22;5983;49.966;8.052;2023-02-19T00:56:06;10.70;99.90
11848;DHT22;5983;49.966;8.052;2023-02-19T00:58:33;10.70;99.90
11848;DHT22;5983;49.966;8.052;2023-02-19T01:01:02;10.60;99.90
11848;DHT22;5983;49.966;8.052;2023-02-19T01:03:30;10.60;99.90
11848;DHT22;5983;49.966;8.052;2023-02-19T01:05:57;10.60;99.90
11848;DHT22;5983;49.966;8.052;2023-02-19T01:08:24;10.70;99.90
11848;DHT22;5983;49.966;8.052;2023-02-19T01:10:52;10.70;99.90
11848;DHT22;5983;49.966;8.052;2023-02-19T01:13:19;10.70;99.90
11848;DHT22;5983;49.966;8.052;2023-02-19T01:15:46;10.70;99.90
11848;DHT22;5983;49.966;8.052;2023-02-19T01:18:14;10.70;99.90
11848;DHT22;5983;49.966;8.052;2023-02-19T01:20:43;10.70;99.90
11848;DHT22;5983;49.966;8.052;2023-02-19T01:23:12;10.70;99.90
11848;DHT22;5983;49.966;8.052;2023-02-19T01:25:40;10.70;99.90
11848;DHT22;5983;49.966;8.052;2023-02-19T01:28:09;10.70;99.90
11848;DHT22;5983;49.966;8.052;2023-02-19T01:30:37;10.70;99.90
11848;DHT22;5983;49.966;8.052;2023-02-19T01:33:05;10.70;99.90
11848;DHT22;5983;49.966;8.052;2023-02-19T01:35:37;10.80;99.90
11848;DHT22;5983;49.966;8.052;2023-02-19T01:38:04;10.70;99.90
11848;DHT22;5983;49.966;8.052;2023-02-19T01:40:32;10.80;99.90
11848;DHT22;5983;49.966;8.052;2023-02-19T01:42:59;10.70;99.90
11848;DHT22;5983;49.966;8.052;2023-02-19T01:45:29;10.70;99.90
11848;DHT22;5983;49.966;8.052;2023-02-19T01:48:01;10.70;99.90
11848;DHT22;5983;49.966;8.052;2023-02-19T01:50:37;10.70;99.90
11848;DHT22;5983;49.966;8.052;2023-02-19T01:53:11;10.70;99.90
11848;DHT22;5983;49.966;8.052;2023-02-19T01:55:43;10.70;99.90
11848;DHT22;5983;49.966;8.052;2023-02-19T01:58:14;10.60;99.90
11848;DHT22;5983;49.966;8.052;2023-02-19T02:00:41;10.60;99.90
11848;DHT22;5983;49.966;8.052;2023-02-19T02:03:09;10.60;99.90
11848;DHT22;5983;49.966;8.052;2023-02-19T02:05:47;10.60;99.90
11848;DHT22;5983;49.966;8.052;2023-02-19T02:08:19;10.60;99.90
11848;DHT22;5983;49.966;8.052;2023-02-19T02:11:04;10.50;99.90
11848;DHT22;5983;49.966;8.052;2023-02-19T02:13:32;10.50;99.90
11848;DHT22;5983;49.966;8.052;2023-02-19T02:16:09;10.50;99.90
11848;DHT22;5983;49.966;8.052;2023-02-19T02:18:54;10.50;99.90
11848;DHT22;5983;49.966;8.052;2023-02-19T02:27:55;10.50;99.90
11848;DHT22;5983;49.966;8.052;2023-02-19T02:30:41;10.50;99.90
11848;DHT22;5983;49.966;8.052;2023-02-19T02:33:19;10.50;99.90
11848;DHT22;5983;49.966;8.052;2023-02-19T02:35:56;10.60;99.90
11848;DHT22;5983;49.966;8.052;2023-02-19T02:38:28;10.60;99.90
11848;DHT22;5983;49.966;8.052;2023-02-19T02:40:58;10.60;99.90
11848;DHT22;5983;49.966;8.052;2023-02-19T02:43:26;10.60;99.90
11848;DHT22;5983;49.966;8.052;2023-02-19T02:45:55;10.70;99.90
11848;DHT22;5983;49.966;8.052;2023-02-19T02:48:27;10.70;99.90
11848;DHT22;5983;49.966;8.052;2023-02-19T02:51:02;10.70;99.90
11848;DHT22;5983;49.966;8.052;2023-02-19T02:53:36;10.70;99.90
11848;DHT22;5983;49.966;8.052;2023-02-19T02:56:28;10.60;99.90
11848;DHT22;5983;49.966;8.052;2023-02-19T02:58:57;10.60;99.90
11848;DHT22;5983;49.966;8.052;2023-02-19T03:01:30;10.60;99.90
11848;DHT22;5983;49.966;8.052;2023-02-19T03:04:21;10.60;99.90
11848;DHT22;5983;49.966;8.052;2023-02-19T03:06:54;10.50;99.90
11848;DHT22;5983;49.966;8.052;2023-02-19T03:09:24;10.50;99.90
11848;DHT22;5983;49.966;8.052;2023-02-19T03:11:59;10.40;99.90
11848;DHT22;5983;49.966;8.052;2023-02-19T03:14:49;10.40;99.90
11848;DHT22;5983;49.966;8.052;2023-02-19T03:17:41;10.40;99.90
11848;DHT22;5983;49.966;8.052;2023-02-19T03:20:33;10.40;99.90
11848;DHT22;5983;49.966;8.052;2023-02-19T03:23:03;10.30;99.90
11848;DHT22;5983;49.966;8.052;2023-02-19T03:25:34;10.40;99.90
11848;DHT22;5983;49.966;8.052;2023-02-19T03:28:23;10.40;99.90
11848;DHT22;5983;49.966;8.052;2023-02-19T03:31:09;10.40;99.90
11848;DHT22;5983;49.966;8.052;2023-02-19T03:33:42;10.50;99.90
11848;DHT22;5983;49.966;8.052;2023-02-19T03:36:12;10.50;99.90
11848;DHT22;5983;49.966;8.052;2023-02-19T03:38:46;10.50;99.90
11848;DHT22;5983;49.966;8.052;2023-02-19T03:41:24;10.50;99.90
11848;DHT22;5983;49.966;8.052;2023-02-19T03:44:03;10.50;99.90
11848;DHT22;5983;49.966;8.052;2023-02-19T03:46:42;10.50;99.90
11848;DHT22;5983;49.966;8.052;2023-02-19T03:49:17;10.60;99.90
11848;DHT22;5983;49.966;8.052;2023-02-19T03:51:53;10.60;99.90
11848;DHT22;5983;49.966;8.052;2023-02-19T03:54:33;10.60;99.90
11848;DHT22;5983;49.966;8.052;2023-02-19T03:57:08;10.60;99.90
11848;DHT22;5983;49.966;8.052;2023-02-19T03:59:47;10.60;99.90
11848;DHT22;5983;49.966;8.052;2023-02-19T04:02:20;10.70;99.90
11848;DHT22;5983;49.966;8.052;2023-02-19T04:04:59;10.70;99.90
11848;DHT22;5983;49.966;8.052;2023-02-19T04:07:33;10.60;99.90
11848;DHT22;5983;49.966;8.052;2023-02-19T04:10:04;10.60;99.90
11848;DHT22;5983;49.966;8.052;2023-02-19T04:12:34;10.60;99.90
11848;DHT22;5983;49.966;8.052;2023-02-19T04:15:07;10.60;99.90
11848;DHT22;5983;49.966;8.052;2023-02-19T04:17:42;10.60;99.90
11848;DHT22;5983;49.966;8.052;2023-02-19T04:20:13;10.60;99.90
11848;DHT22;5983;49.966;8.052;2023-02-19T04:22:42;10.60;99.90
11848;DHT22;5983;49.966;8.052;2023-02-19T04:25:10;10.60;99.90
11848;DHT22;5983;49.966;8.052;2023-02-19T04:27:37;10.60;99.90
11848;DHT22;5983;49.966;8.052;2023-02-19T04:30:14;10.60;99.90
11848;DHT22;5983;49.966;8.052;2023-02-19T04:32:41;10.60;99.90
11848;DHT22;5983;49.966;8.052;2023-02-19T04:35:08;10.60;99.90
11848;DHT22;5983;49.966;8.052;2023-02-19T04:37:37;10.60;99.90
11848;DHT22;5983;49.966;8.052;2023-02-19T04:40:04;10.60;99.90
11848;DHT22;5983;49.966;8.052;2023-02-19T04:42:32;10.60;99.90
11848;DHT22;5983;49.966;8.052;2023-02-19T04:44:58;10.60;99.90
11848;DHT22;5983;49.966;8.052;2023-02-19T04:47:25;10.60;99.90
11848;DHT22;5983;49.966;8.052;2023-02-19T04:49:52;10.60;99.90
11848;DHT22;5983;49.966;8.052;2023-02-19T04:52:19;10.60;99.90
11848;DHT22;5983;49.966;8.052;2023-02-19T04:54:48;10.60;99.90
11848;DHT22;5983;49.966;8.052;2023-02-19T04:57:15;10.60;99.90
11848;DHT22;5983;49.966;8.052;2023-02-19T04:59:42;10.60;99.90
11848;DHT22;5983;49.966;8.052;2023-02-19T05:02:09;10.60;99.90
11848;DHT22;5983;49.966;8.052;2023-02-19T05:04:36;10.60;99.90
11848;DHT22;5983;49.966;8.052;2023-02-19T05:07:03;10.60;99.90
11848;DHT22;5983;49.966;8.052;2023-02-19T05:09:30;10.60;99.90
11848;DHT22;5983;49.966;8.052;2023-02-19T05:11:58;10.60;99.90
11848;DHT22;5983;49.966;8.052;2023-02-19T05:14:25;10.60;99.90
11848;DHT22;5983;49.966;8.052;2023-02-19T05:16:52;10.60;99.90
11848;DHT22;5983;49.966;8.052;2023-02-19T05:19:19;10.50;99.90
11848;DHT22;5983;49.966;8.052;2023-02-19T05:21:46;10.50;99.90
11848;DHT22;5983;49.966;8.052;2023-02-19T05:24:13;10.50;99.90
11848;DHT22;5983;49.966;8.052;2023-02-19T05:26:39;10.50;99.90
11848;DHT22;5983;49.966;8.052;2023-02-19T05:29:08;10.50;99.90
11848;DHT22;5983;49.966;8.052;2023-02-19T05:31:35;10.50;99.90
11848;DHT22;5983;49.966;8.052;2023-02-19T05:34:02;10.50;99.90
11848;DHT22;5983;49.966;8.052;2023-02-19T05:36:29;10.50;99.90
11848;DHT22;5983;49.966;8.052;2023-02-19T05:38:57;10.60;99.90
11848;DHT22;5983;49.966;8.052;2023-02-19T05:41:26;10.60;99.90
11848;DHT22;5983;49.966;8.052;2023-02-19T05:43:55;10.50;99.90
11848;DHT22;5983;49.966;8.052;2023-02-19T05:46:25;10.50;99.90
11848;DHT22;5983;49.966;8.052;2023-02-19T05:48:55;10.50;99.90
11848;DHT22;5983;49.966;8.052;2023-02-19T05:51:24;10.50;99.90
11848;DHT22;5983;49.966;8.052;2023-02-19T05:53:55;10.50;99.90
11848;DHT22;5983;49.966;8.052;2023-02-19T05:56:33;10.50;99.90
11848;DHT22;5983;49.966;8.052;2023-02-19T05:59:02;10.50;99.90
11848;DHT22;5983;49.966;8.052;2023-02-19T06:01:34;10.50;99.90
11848;DHT22;5983;49.966;8.052;2023-02-19T06:04:01;10.60;99.90
11848;DHT22;5983;49.966;8.052;2023-02-19T06:06:28;10.60;99.90
11848;DHT22;5983;49.966;8.052;2023-02-19T06:08:56;10.60;99.90
11848;DHT22;5983;49.966;8.052;2023-02-19T06:11:23;10.50;99.90
11848;DHT22;5983;49.966;8.052;2023-02-19T06:13:50;10.60;99.90
11848;DHT22;5983;49.966;8.052;2023-02-19T06:16:18;10.60;99.90
11848;DHT22;5983;49.966;8.052;2023-02-19T06:18:48;10.60;99.90
11848;DHT22;5983;49.966;8.052;2023-02-19T06:21:15;10.60;99.90
11848;DHT22;5983;49.966;8.052;2023-02-19T06:23:44;10.60;99.90
11848;DHT22;5983;49.966;8.052;2023-02-19T06:26:12;10.60;99.90
11848;DHT22;5983;49.966;8.052;2023-02-19T06:28:42;10.60;99.90
11848;DHT22;5983;49.966;8.052;2023-02-19T06:31:10;10.50;99.90
11848;DHT22;5983;49.966;8.052;2023-02-19T06:33:38;10.50;99.90
11848;DHT22;5983;49.966;8.052;2023-02-19T06:36:11;10.50;99.90
11848;DHT22;5983;49.966;8.052;2023-02-19T06:38:40;10.50;99.90
11848;DHT22;5983;49.966;8.052;2023-02-19T06:41:09;10.50;99.90
11848;DHT22;5983;49.966;8.052;2023-02-19T06:43:37;10.50;99.90
11848;DHT22;5983;49.966;8.052;2023-02-19T06:46:05;10.50;99.90
11848;DHT22;5983;49.966;8.052;2023-02-19T06:48:38;10.50;99.90
11848;DHT22;5983;49.966;8.052;2023-02-19T06:51:05;10.50;99.90
11848;DHT22;5983;49.966;8.052;2023-02-19T06:53:35;10.60;99.90
11848;DHT22;5983;49.966;8.052;2023-02-19T06:56:04;10.60;99.90
11848;DHT22;5983;49.966;8.052;2023-02-19T06:58:33;10.60;99.90
11848;DHT22;5983;49.966;8.052;2023-02-19T07:01:00;10.60;99.90
11848;DHT22;5983;49.966;8.052;2023-02-19T07:03:27;10.70;99.90
11848;DHT22;5983;49.966;8.052;2023-02-19T07:05:54;10.70;99.90
11848;DHT22;5983;49.966;8.052;2023-02-19T07:08:26;10.80;99.90
11848;DHT22;5983;49.966;8.052;2023-02-19T07:10:53;10.80;99.90
11848;DHT22;5983;49.966;8.052;2023-02-19T07:13:21;10.80;99.90
11848;DHT22;5983;49.966;8.052;2023-02-19T07:15:48;10.80;99.90
11848;DHT22;5983;49.966;8.052;2023-02-19T07:18:15;10.80;99.90
11848;DHT22;5983;49.966;8.052;2023-02-19T07:20:42;10.80;99.90
11848;DHT22;5983;49.966;8.052;2023-02-19T07:23:09;10.80;99.90
11848;DHT22;5983;49.966;8.052;2023-02-19T07:25:38;10.80;99.90
11848;DHT22;5983;49.966;8.052;2023-02-19T07:28:05;10.90;99.90
11848;DHT22;5983;49.966;8.052;2023-02-19T07:30:33;11.00;99.90
11848;DHT22;5983;49.966;8.052;2023-02-19T07:33:00;11.00;99.90
11848;DHT22;5983;49.966;8.052;2023-02-19T07:35:29;11.10;99.90
11848;DHT22;5983;49.966;8.052;2023-02-19T07:37:56;11.30;99.90
11848;DHT22;5983;49.966;8.052;2023-02-19T07:40:23;11.40;99.90
11848;DHT22;5983;49.966;8.052;2023-02-19T07:42:51;11.50;99.90
11848;DHT22;5983;49.966;8.052;2023-02-19T07:45:18;11.70;99.90
11848;DHT22;5983;49.966;8.052;2023-02-19T07:47:45;12.10;99.90
11848;DHT22;5983;49.966;8.052;2023-02-19T07:50:12;12.90;99.90
11848;DHT22;5983;49.966;8.052;2023-02-19T07:52:38;13.50;99.90
11848;DHT22;5983;49.966;8.052;2023-02-19T07:55:06;13.70;99.90
11848;DHT22;5983;49.966;8.052;2023-02-19T07:57:33;13.60;99.90
11848;DHT22;5983;49.966;8.052;2023-02-19T08:00:01;13.40;99.90
11848;DHT22;5983;49.966;8.052;2023-02-19T08:02:29;13.30;99.90
11848;DHT22;5983;49.966;8.052;2023-02-19T08:05:13;13.30;99.90
11848;DHT22;5983;49.966;8.052;2023-02-19T08:07:40;13.40;99.90
11848;DHT22;5983;49.966;8.052;2023-02-19T08:10:07;13.40;99.90
11848;DHT22;5983;49.966;8.052;2023-02-19T08:12:55;13.30;99.90
11848;DHT22;5983;49.966;8.052;2023-02-19T08:15:41;13.20;99.90
11848;DHT22;5983;49.966;8.052;2023-02-19T08:18:09;13.00;99.90
11848;DHT22;5983;49.966;8.052;2023-02-19T08:20:36;12.80;99.90
11848;DHT22;5983;49.966;8.052;2023-02-19T08:23:03;12.70;99.90
11848;DHT22;5983;49.966;8.052;2023-02-19T08:25:30;12.60;99.90
11848;DHT22;5983;49.966;8.052;2023-02-19T08:27:58;12.50;99.90
11848;DHT22;5983;49.966;8.052;2023-02-19T08:30:26;12.40;99.90
11848;DHT22;5983;49.966;8.052;2023-02-19T08:32:55;12.40;99.90
11848;DHT22;5983;49.966;8.052;2023-02-19T08:35:23;12.50;99.90
11848;DHT22;5983;49.966;8.052;2023-02-19T08:37:50;12.70;99.90
11848;DHT22;5983;49.966;8.052;2023-02-19T08:40:21;12.90;99.90
11848;DHT22;5983;49.966;8.052;2023-02-19T08:42:48;13.10;99.90
11848;DHT22;5983;49.966;8.052;2023-02-19T08:45:15;13.30;99.90
11848;DHT22;5983;49.966;8.052;2023-02-19T08:47:42;13.40;99.90
11848;DHT22;5983;49.966;8.052;2023-02-19T08:50:11;13.40;99.90
11848;DHT22;5983;49.966;8.052;2023-02-19T08:52:38;13.40;99.90
11848;DHT22;5983;49.966;8.052;2023-02-19T08:55:05;13.40;99.90
11848;DHT22;5983;49.966;8.052;2023-02-19T08:57:34;13.40;99.90
11848;DHT22;5983;49.966;8.052;2023-02-19T09:00:03;13.40;99.90
11848;DHT22;5983;49.966;8.052;2023-02-19T09:02:31;13.40;99.90
11848;DHT22;5983;49.966;8.052;2023-02-19T09:04:58;13.30;99.90
11848;DHT22;5983;49.966;8.052;2023-02-19T09:07:26;13.30;99.90
11848;DHT22;5983;49.966;8.052;2023-02-19T09:09:53;13.30;99.90
11848;DHT22;5983;49.966;8.052;2023-02-19T09:12:22;13.40;99.90
11848;DHT22;5983;49.966;8.052;2023-02-19T09:14:49;13.30;99.90
11848;DHT22;5983;49.966;8.052;2023-02-19T09:17:16;13.30;99.90
11848;DHT22;5983;49.966;8.052;2023-02-19T09:19:44;13.30;99.90
11848;DHT22;5983;49.966;8.052;2023-02-19T09:22:10;13.30;99.90
11848;DHT22;5983;49.966;8.052;2023-02-19T09:24:39;13.30;99.90
11848;DHT22;5983;49.966;8.052;2023-02-19T09:27:14;13.40;99.90
11848;DHT22;5983;49.966;8.052;2023-02-19T09:29:41;13.50;99.90
11848;DHT22;5983;49.966;8.052;2023-02-19T09:32:09;13.70;99.90
11848;DHT22;5983;49.966;8.052;2023-02-19T09:34:37;13.90;99.90
11848;DHT22;5983;49.966;8.052;2023-02-19T09:37:05;13.90;99.90
11848;DHT22;5983;49.966;8.052;2023-02-19T09:39:33;13.90;99.90
11848;DHT22;5983;49.966;8.052;2023-02-19T09:42:03;13.70;99.90
11848;DHT22;5983;49.966;8.052;2023-02-19T09:44:40;13.60;99.90
11848;DHT22;5983;49.966;8.052;2023-02-19T09:47:15;13.40;99.90
11848;DHT22;5983;49.966;8.052;2023-02-19T09:49:46;13.30;99.90
11848;DHT22;5983;49.966;8.052;2023-02-19T09:52:24;13.20;99.90
11848;DHT22;5983;49.966;8.052;2023-02-19T09:55:03;13.10;99.90
11848;DHT22;5983;49.966;8.052;2023-02-19T09:57:39;13.00;99.90
11848;DHT22;5983;49.966;8.052;2023-02-19T10:00:20;12.90;99.90
11848;DHT22;5983;49.966;8.052;2023-02-19T10:02:51;12.90;99.90
11848;DHT22;5983;49.966;8.052;2023-02-19T10:05:20;12.90;99.90
11848;DHT22;5983;49.966;8.052;2023-02-19T10:07:51;12.90;99.90
11848;DHT22;5983;49.966;8.052;2023-02-19T10:10:24;12.90;99.90
11848;DHT22;5983;49.966;8.052;2023-02-19T10:13:09;12.90;99.90
11848;DHT22;5983;49.966;8.052;2023-02-19T10:15:44;12.90;99.90
11848;DHT22;5983;49.966;8.052;2023-02-19T10:18:16;12.90;99.90
11848;DHT22;5983;49.966;8.052;2023-02-19T10:20:46;12.90;99.90
11848;DHT22;5983;49.966;8.052;2023-02-19T10:23:14;12.90;99.90
11848;DHT22;5983;49.966;8.052;2023-02-19T10:25:45;12.90;99.90
11848;DHT22;5983;49.966;8.052;2023-02-19T10:28:17;12.90;99.90
11848;DHT22;5983;49.966;8.052;2023-02-19T10:30:50;12.80;99.90
11848;DHT22;5983;49.966;8.052;2023-02-19T10:33:19;12.80;99.90
11848;DHT22;5983;49.966;8.052;2023-02-19T10:35:52;12.80;99.90
11848;DHT22;5983;49.966;8.052;2023-02-19T10:38:23;12.90;99.90
11848;DHT22;5983;49.966;8.052;2023-02-19T10:40:59;12.90;99.90
11848;DHT22;5983;49.966;8.052;2023-02-19T10:43:33;12.90;99.90
11848;DHT22;5983;49.966;8.052;2023-02-19T10:46:06;12.90;99.90
11848;DHT22;5983;49.966;8.052;2023-02-19T10:48:45;12.90;99.90
11848;DHT22;5983;49.966;8.052;2023-02-19T10:51:18;12.80;99.90
11848;DHT22;5983;49.966;8.052;2023-02-19T10:53:49;12.80;99.90
11848;DHT22;5983;49.966;8.052;2023-02-19T10:56:23;12.80;99.90
11848;DHT22;5983;49.966;8.052;2023-02-19T10:58:52;12.80;99.90
11848;DHT22;5983;49.966;8.052;2023-02-19T11:01:21;12.90;99.90
11848;DHT22;5983;49.966;8.052;2023-02-19T11:03:51;13.30;99.90
11848;DHT22;5983;49.966;8.052;2023-02-19T11:06:38;13.70;99.90
11848;DHT22;5983;49.966;8.052;2023-02-19T11:09:21;14.60;99.90
11848;DHT22;5983;49.966;8.052;2023-02-19T11:11:52;16.60;99.90
11848;DHT22;5983;49.966;8.052;2023-02-19T11:14:23;19.70;99.90
11848;DHT22;5983;49.966;8.052;2023-02-19T11:16:52;23.10;99.90
11848;DHT22;5983;49.966;8.052;2023-02-19T11:19:28;25.70;97.90
11848;DHT22;5983;49.966;8.052;2023-02-19T11:22:01;26.70;88.50
11848;DHT22;5983;49.966;8.052;2023-02-19T11:24:32;26.20;78.10
11848;DHT22;5983;49.966;8.052;2023-02-19T11:27:04;25.10;78.90
11848;DHT22;5983;49.966;8.052;2023-02-19T11:29:34;24.60;79.10
11848;DHT22;5983;49.966;8.052;2023-02-19T11:32:24;23.90;79.40
11848;DHT22;5983;49.966;8.052;2023-02-19T11:38:08;21.80;81.00
11848;DHT22;5983;49.966;8.052;2023-02-19T11:40:40;20.80;85.40
11848;DHT22;5983;49.966;8.052;2023-02-19T11:43:28;20.10;89.10
11848;DHT22;5983;49.966;8.052;2023-02-19T11:46:19;19.60;91.10
11848;DHT22;5983;49.966;8.052;2023-02-19T11:49:03;19.10;91.90
11848;DHT22;5983;49.966;8.052;2023-02-19T11:52:15;18.50;93.20
11848;DHT22;5983;49.966;8.052;2023-02-19T11:54:56;17.90;94.60
11848;DHT22;5983;49.966;8.052;2023-02-19T11:57:40;17.30;95.90
11848;DHT22;5983;49.966;8.052;2023-02-19T12:00:22;16.90;97.80
11848;DHT22;5983;49.966;8.052;2023-02-19T12:03:05;16.50;99.60
11848;DHT22;5983;49.966;8.052;2023-02-19T12:06:08;16.20;99.90
11848;DHT22;5983;49.966;8.052;2023-02-19T12:09:21;15.90;99.90
11848;DHT22;5983;49.966;8.052;2023-02-19T12:12:23;15.80;99.90
11848;DHT22;5983;49.966;8.052;2023-02-19T12:15:18;15.60;99.90
11848;DHT22;5983;49.966;8.052;2023-02-19T12:18:24;15.50;99.90
11848;DHT22;5983;49.966;8.052;2023-02-19T12:21:22;15.60;99.90
11848;DHT22;5983;49.966;8.052;2023-02-19T12:24:21;15.70;99.90
11848;DHT22;5983;49.966;8.052;2023-02-19T12:27:21;15.90;99.90
11848;DHT22;5983;49.966;8.052;2023-02-19T12:30:17;15.90;99.90
11848;DHT22;5983;49.966;8.052;2023-02-19T12:33:12;15.90;99.90
11848;DHT22;5983;49.966;8.052;2023-02-19T12:36:17;15.90;99.90
11848;DHT22;5983;49.966;8.052;2023-02-19T12:38:59;15.80;99.90
11848;DHT22;5983;49.966;8.052;2023-02-19T12:41:38;15.80;99.90
11848;DHT22;5983;49.966;8.052;2023-02-19T12:44:15;15.80;99.90
11848;DHT22;5983;49.966;8.052;2023-02-19T12:46:50;16.00;99.90
11848;DHT22;5983;49.966;8.052;2023-02-19T12:49:25;16.10;99.90
11848;DHT22;5983;49.966;8.052;2023-02-19T12:52:00;16.20;99.90
11848;DHT22;5983;49.966;8.052;2023-02-19T12:54:33;16.10;99.90
11848;DHT22;5983;49.966;8.052;2023-02-19T12:57:08;16.00;99.90
11848;DHT22;5983;49.966;8.052;2023-02-19T12:59:42;15.90;99.90
11848;DHT22;5983;49.966;8.052;2023-02-19T13:02:17;15.80;99.90
11848;DHT22;5983;49.966;8.052;2023-02-19T13:04:51;15.70;99.90
11848;DHT22;5983;49.966;8.052;2023-02-19T13:07:29;15.70;99.90
11848;DHT22;5983;49.966;8.052;2023-02-19T13:10:11;15.80;99.90
11848;DHT22;5983;49.966;8.052;2023-02-19T13:12:47;15.90;99.90
11848;DHT22;5983;49.966;8.052;2023-02-19T13:15:28;15.90;99.90
11848;DHT22;5983;49.966;8.052;2023-02-19T13:17:59;16.20;99.90
11848;DHT22;5983;49.966;8.052;2023-02-19T13:20:30;17.50;99.90
11848;DHT22;5983;49.966;8.052;2023-02-19T13:23:05;18.40;99.90
11848;DHT22;5983;49.966;8.052;2023-02-19T13:26:07;18.90;99.90
11848;DHT22;5983;49.966;8.052;2023-02-19T13:28:59;20.20;99.90
11848;DHT22;5983;49.966;8.052;2023-02-19T13:32:03;22.80;95.30
11848;DHT22;5983;49.966;8.052;2023-02-19T13:34:54;25.00;83.50
11848;DHT22;5983;49.966;8.052;2023-02-19T13:37:32;25.90;72.30
11848;DHT22;5983;49.966;8.052;2023-02-19T13:40:03;25.20;68.40
11848;DHT22;5983;49.966;8.052;2023-02-19T13:42:33;24.30;70.40
11848;DHT22;5983;49.966;8.052;2023-02-19T13:45:03;23.90;71.90
11848;DHT22;5983;49.966;8.052;2023-02-19T13:47:48;23.70;71.20
11848;DHT22;5983;49.966;8.052;2023-02-19T13:50:25;22.60;72.90
11848;DHT22;5983;49.966;8.052;2023-02-19T13:52:54;21.50;75.70
11848;DHT22;5983;49.966;8.052;2023-02-19T13:55:50;20.30;78.50
11848;DHT22;5983;49.966;8.052;2023-02-19T13:58:38;19.30;82.30
11848;DHT22;5983;49.966;8.052;2023-02-19T14:04:56;17.90;90.30
11848;DHT22;5983;49.966;8.052;2023-02-19T14:07:51;17.40;92.70
11848;DHT22;5983;49.966;8.052;2023-02-19T14:13:58;16.70;96.60
11848;DHT22;5983;49.966;8.052;2023-02-19T14:17:02;16.40;97.90
11848;DHT22;5983;49.966;8.052;2023-02-19T14:19:51;16.20;99.20
11848;DHT22;5983;49.966;8.052;2023-02-19T14:22:48;16.00;99.90
11848;DHT22;5983;49.966;8.052;2023-02-19T14:25:55;15.80;99.90
11848;DHT22;5983;49.966;8.052;2023-02-19T14:28:28;15.60;99.90
11848;DHT22;5983;49.966;8.052;2023-02-19T14:31:07;15.50;99.90
11848;DHT22;5983;49.966;8.052;2023-02-19T14:33:38;15.60;99.90
11848;DHT22;5983;49.966;8.052;2023-02-19T14:36:16;15.60;99.90
11848;DHT22;5983;49.966;8.052;2023-02-19T14:38:52;15.70;99.90
11848;DHT22;5983;49.966;8.052;2023-02-19T14:41:22;15.50;99.90
11848;DHT22;5983;49.966;8.052;2023-02-19T14:43:52;15.40;99.90
11848;DHT22;5983;49.966;8.052;2023-02-19T14:46:27;15.20;99.90
11848;DHT22;5983;49.966;8.052;2023-02-19T14:49:00;15.00;99.90
11848;DHT22;5983;49.966;8.052;2023-02-19T14:51:34;14.80;99.90
11848;DHT22;5983;49.966;8.052;2023-02-19T14:54:11;14.50;99.90
11848;DHT22;5983;49.966;8.052;2023-02-19T14:56:44;14.20;99.90
11848;DHT22;5983;49.966;8.052;2023-02-19T14:59:25;14.10;99.90
11848;DHT22;5983;49.966;8.052;2023-02-19T15:01:56;13.90;99.90
11848;DHT22;5983;49.966;8.052;2023-02-19T15:04:27;13.80;99.90
11848;DHT22;5983;49.966;8.052;2023-02-19T15:06:59;13.70;99.90
11848;DHT22;5983;49.966;8.052;2023-02-19T15:09:30;13.60;99.90
11848;DHT22;5983;49.966;8.052;2023-02-19T15:11:59;13.50;99.90
11848;DHT22;5983;49.966;8.052;2023-02-19T15:14:29;13.50;99.90
11848;DHT22;5983;49.966;8.052;2023-02-19T15:17:00;13.40;99.90
11848;DHT22;5983;49.966;8.052;2023-02-19T15:19:30;13.30;99.90
11848;DHT22;5983;49.966;8.052;2023-02-19T15:22:02;13.20;99.90
11848;DHT22;5983;49.966;8.052;2023-02-19T15:24:29;13.10;99.90
11848;DHT22;5983;49.966;8.052;2023-02-19T15:26:56;13.10;99.90
11848;DHT22;5983;49.966;8.052;2023-02-19T15:29:25;13.00;99.90
11848;DHT22;5983;49.966;8.052;2023-02-19T15:31:54;13.00;99.90
11848;DHT22;5983;49.966;8.052;2023-02-19T15:34:24;13.00;99.90
11848;DHT22;5983;49.966;8.052;2023-02-19T15:36:55;13.00;99.90
11848;DHT22;5983;49.966;8.052;2023-02-19T15:39:29;13.00;99.90
11848;DHT22;5983;49.966;8.052;2023-02-19T15:42:01;13.00;99.90
11848;DHT22;5983;49.966;8.052;2023-02-19T15:44:39;13.00;99.90
11848;DHT22;5983;49.966;8.052;2023-02-19T15:47:18;12.90;99.90
11848;DHT22;5983;49.966;8.052;2023-02-19T15:49:54;12.90;99.90
11848;DHT22;5983;49.966;8.052;2023-02-19T15:52:33;12.80;99.90
11848;DHT22;5983;49.966;8.052;2023-02-19T15:55:17;12.80;99.90
11848;DHT22;5983;49.966;8.052;2023-02-19T15:57:53;12.70;99.90
11848;DHT22;5983;49.966;8.052;2023-02-19T16:00:33;12.70;99.90
11848;DHT22;5983;49.966;8.052;2023-02-19T16:03:04;12.70;99.90
11848;DHT22;5983;49.966;8.052;2023-02-19T16:05:33;12.70;99.90
11848;DHT22;5983;49.966;8.052;2023-02-19T16:08:17;12.60;99.90
11848;DHT22;5983;49.966;8.052;2023-02-19T16:10:54;12.60;99.90
11848;DHT22;5983;49.966;8.052;2023-02-19T16:13:24;12.50;99.90
11848;DHT22;5983;49.966;8.052;2023-02-19T16:15:58;12.50;99.90
11848;DHT22;5983;49.966;8.052;2023-02-19T16:18:29;12.40;99.90
11848;DHT22;5983;49.966;8.052;2023-02-19T16:20:56;12.40;99.90
11848;DHT22;5983;49.966;8.052;2023-02-19T16:23:24;12.30;99.90
11848;DHT22;5983;49.966;8.052;2023-02-19T16:26:00;12.20;99.90
11848;DHT22;5983;49.966;8.052;2023-02-19T16:28:35;12.20;99.90
11848;DHT22;5983;49.966;8.052;2023-02-19T16:31:06;12.20;99.90
11848;DHT22;5983;49.966;8.052;2023-02-19T16:33:37;12.10;99.90
11848;DHT22;5983;49.966;8.052;2023-02-19T16:39:14;12.00;99.90
11848;DHT22;5983;49.966;8.052;2023-02-19T16:42:10;11.90;99.90
11848;DHT22;5983;49.966;8.052;2023-02-19T16:44:42;11.80;99.90